Time;durP1;ratioP1;P1;durP2;ratioP2;P2;SDS_P1;SDS_P2;PMS_P1;PMS_P2;Temp;Humidity;BMP_temperature;BMP_pressure;BME280_temperature;BME280_humidity;BME280_pressure;Samples;Min_cycle;Max_cycle;Signal;HPM_P1;HPM_P2
2021/01/03 00:01:28;;;;;;;2.53;0.60;;;;;;;;;;5033720;28;20033;-59
2021/01/03 00:03:54;;;;;;;2.45;0.80;;;;;;;;;;5010168;28;20037;-58
2021/01/03 00:06:20;;;;;;;2.53;0.82;;;;;;;;;;5030472;28;20030;-57
2021/01/03 00:08:46;;;;;;;2.80;0.90;;;;;;;;;;5024778;28;20045;-60
2021/01/03 00:11:12;;;;;;;5.65;1.08;;;;;;;;;;5020386;28;20468;-60
2021/01/03 00:13:38;;;;;;;3.28;0.82;;;;;;;;;;5010408;28;20249;-61
2021/01/03 00:16:04;;;;;;;4.35;0.90;;;;;;;;;;5018404;28;20045;-60
2021/01/03 00:18:30;;;;;;;4.70;0.70;;;;;;;;;;5023861;28;20132;-60
2021/01/03 00:20:55;;;;;;;2.97;0.70;;;;;;;;;;5029724;28;20409;-58
2021/01/03 00:23:21;;;;;;;2.85;0.60;;;;;;;;;;5024274;28;20049;-60
2021/01/03 00:25:48;;;;;;;3.55;0.73;;;;;;;;;;5023329;28;20041;-60
2021/01/03 00:28:14;;;;;;;3.65;0.50;;;;;;;;;;5021676;28;20142;-58
2021/01/03 00:30:40;;;;;;;2.05;0.73;;;;;;;;;;5023841;28;20562;-58
2021/01/03 00:33:06;;;;;;;3.03;0.55;;;;;;;;;;5023587;28;20044;-60
2021/01/03 00:35:33;;;;;;;3.97;0.60;;;;;;;;;;5022877;28;20036;-58
2021/01/03 00:38:00;;;;;;;1.88;0.80;;;;;;;;;;5022700;28;20101;-58
2021/01/03 00:40:27;;;;;;;5.88;0.93;;;;;;;;;;5031191;28;20109;-59
2021/01/03 00:42:53;;;;;;;5.40;1.30;;;;;;;;;;5023133;28;20052;-59
2021/01/03 00:45:19;;;;;;;3.92;1.20;;;;;;;;;;5022923;28;20136;-58
2021/01/03 00:47:45;;;;;;;3.13;0.90;;;;;;;;;;5022038;28;20049;-60
2021/01/03 00:50:11;;;;;;;3.10;1.08;;;;;;;;;;5024925;28;20468;-59
2021/01/03 00:52:37;;;;;;;7.82;1.63;;;;;;;;;;5026097;28;20037;-60
2021/01/03 00:55:04;;;;;;;5.28;0.85;;;;;;;;;;5022089;28;20038;-59
2021/01/03 00:57:30;;;;;;;3.13;1.02;;;;;;;;;;5020761;28;20106;-58
2021/01/03 00:59:56;;;;;;;5.55;1.60;;;;;;;;;;5022999;28;20068;-60
2021/01/03 01:02:21;;;;;;;4.15;1.30;;;;;;;;;;5020740;28;20065;-59
2021/01/03 01:04:47;;;;;;;3.22;1.17;;;;;;;;;;5020708;28;20157;-58
2021/01/03 01:07:16;;;;;;;1.10;0.50;;;;;;;;;;5022672;28;20073;-60
2021/01/03 01:09:42;;;;;;;2.47;0.60;;;;;;;;;;5019815;28;20052;-59
2021/01/03 01:12:08;;;;;;;3.10;1.23;;;;;;;;;;5022578;28;20045;-59
2021/01/03 01:14:34;;;;;;;4.25;1.23;;;;;;;;;;5024378;28;20042;-60
2021/01/03 01:16:59;;;;;;;2.80;0.95;;;;;;;;;;5023850;28;20123;-60
2021/01/03 01:19:25;;;;;;;3.05;1.10;;;;;;;;;;5021175;28;20050;-59
2021/01/03 01:21:51;;;;;;;2.38;0.70;;;;;;;;;;5015948;28;20056;-60
2021/01/03 01:24:17;;;;;;;2.70;0.80;;;;;;;;;;5022139;28;20079;-63
2021/01/03 01:26:43;;;;;;;4.65;0.70;;;;;;;;;;5037926;28;20052;-62
2021/01/03 01:29:09;;;;;;;1.83;0.50;;;;;;;;;;5028935;28;20067;-60
2021/01/03 01:31:35;;;;;;;2.67;0.70;;;;;;;;;;5039118;28;20381;-60
2021/01/03 01:34:00;;;;;;;2.40;0.75;;;;;;;;;;5039728;28;20044;-60
2021/01/03 01:36:26;;;;;;;3.33;0.80;;;;;;;;;;5040829;28;20048;-60
2021/01/03 01:38:52;;;;;;;4.25;0.75;;;;;;;;;;5041716;28;20061;-61
2021/01/03 01:41:18;;;;;;;2.70;0.90;;;;;;;;;;5040766;28;20040;-61
2021/01/03 01:43:44;;;;;;;3.47;0.90;;;;;;;;;;5041719;28;20048;-60
2021/01/03 01:46:18;;;;;;;5.68;2.22;;;;;;;;;;5041341;28;20071;-61
2021/01/03 01:48:46;;;;;;;5.63;1.70;;;;;;;;;;5022417;28;20125;-59
2021/01/03 01:51:31;;;;;;;4.03;1.20;;;;;;;;;;5021961;28;20042;-60
2021/01/03 01:54:15;;;;;;;2.22;0.70;;;;;;;;;;5010467;28;20045;-60
2021/01/03 01:56:44;;;;;;;3.92;1.05;;;;;;;;;;5019907;28;20038;-60
2021/01/03 01:59:10;;;;;;;3.47;1.00;;;;;;;;;;5023437;28;20030;-60
2021/01/03 02:01:49;;;;;;;4.18;0.80;;;;;;;;;;5012968;28;20057;-61
2021/01/03 02:04:35;;;;;;;3.55;0.70;;;;;;;;;;5042730;28;20049;-59
2021/01/03 02:07:05;;;;;;;7.43;0.85;;;;;;;;;;5037932;28;20065;-59
2021/01/03 02:09:49;;;;;;;2.88;0.70;;;;;;;;;;5043705;28;20153;-60
2021/01/03 02:12:22;;;;;;;4.15;1.00;;;;;;;;;;5044114;28;20059;-60
2021/01/03 02:14:48;;;;;;;2.60;0.80;;;;;;;;;;5023443;28;20048;-60
2021/01/03 02:17:14;;;;;;;3.83;1.48;;;;;;;;;;5022562;28;20041;-64
2021/01/03 02:19:39;;;;;;;8.10;3.60;;;;;;;;;;5020988;28;20033;-61
2021/01/03 02:22:05;;;;;;;13.95;3.65;;;;;;;;;;5031045;28;20050;-61
2021/01/03 02:24:40;;;;;;;4.57;1.60;;;;;;;;;;5021796;28;20883;-62
2021/01/03 02:27:13;;;;;;;4.65;1.75;;;;;;;;;;5022775;28;20038;-60
2021/01/03 02:29:40;;;;;;;6.82;2.08;;;;;;;;;;5024953;28;20038;-62
2021/01/03 02:32:07;;;;;;;4.13;1.20;;;;;;;;;;5026094;28;20316;-62
2021/01/03 02:34:38;;;;;;;3.35;1.30;;;;;;;;;;5021583;28;20420;-61
2021/01/03 02:37:06;;;;;;;2.65;0.70;;;;;;;;;;5021729;28;20056;-63
2021/01/03 02:39:51;;;;;;;4.00;0.77;;;;;;;;;;5016597;28;20041;-62
2021/01/03 02:42:19;;;;;;;2.47;0.80;;;;;;;;;;5017241;28;20125;-62
2021/01/03 02:44:45;;;;;;;5.82;0.88;;;;;;;;;;5017760;28;20159;-63
2021/01/03 02:47:12;;;;;;;2.60;0.73;;;;;;;;;;5019512;28;20132;-62
2021/01/03 02:49:38;;;;;;;2.20;0.60;;;;;;;;;;5024406;28;20096;-63
2021/01/03 02:52:15;;;;;;;2.72;0.80;;;;;;;;;;5020356;28;20715;-61
2021/01/03 02:54:41;;;;;;;3.10;0.68;;;;;;;;;;5021287;28;20041;-62
2021/01/03 02:57:07;;;;;;;2.15;0.60;;;;;;;;;;5019340;28;20806;-62
2021/01/03 02:59:42;;;;;;;2.60;0.80;;;;;;;;;;5015638;28;20042;-62
2021/01/03 03:02:08;;;;;;;3.10;0.82;;;;;;;;;;5011945;28;20441;-64
2021/01/03 03:04:35;;;;;;;3.10;0.80;;;;;;;;;;5018427;28;20514;-62
2021/01/03 03:07:01;;;;;;;5.97;0.90;;;;;;;;;;5006783;28;20046;-62
2021/01/03 03:09:27;;;;;;;3.30;1.00;;;;;;;;;;5019294;28;20037;-62
2021/01/03 03:11:53;;;;;;;2.75;0.73;;;;;;;;;;5029615;28;20091;-61
2021/01/03 03:14:19;;;;;;;3.75;0.88;;;;;;;;;;5017161;28;20069;-61
2021/01/03 03:16:46;;;;;;;2.10;0.57;;;;;;;;;;5016736;28;20042;-62
2021/01/03 03:19:21;;;;;;;2.75;0.70;;;;;;;;;;5034166;28;20040;-62
2021/01/03 03:21:49;;;;;;;2.63;0.80;;;;;;;;;;5025292;28;20045;-61
2021/01/03 03:24:15;;;;;;;3.63;0.80;;;;;;;;;;5023586;28;20060;-61
2021/01/03 03:26:41;;;;;;;3.65;0.80;;;;;;;;;;5012691;28;20050;-62
2021/01/03 03:29:07;;;;;;;2.70;0.60;;;;;;;;;;5013708;28;20083;-60
2021/01/03 03:31:36;;;;;;;3.17;0.70;;;;;;;;;;5017756;28;20083;-61
2021/01/03 03:34:02;;;;;;;1.98;0.50;;;;;;;;;;5022169;28;20127;-60
2021/01/03 03:36:27;;;;;;;1.95;0.50;;;;;;;;;;5021583;28;20457;-60
2021/01/03 03:38:54;;;;;;;2.65;0.60;;;;;;;;;;5027603;28;20120;-60
2021/01/03 03:41:20;;;;;;;2.33;0.50;;;;;;;;;;5039153;28;20048;-61
2021/01/03 03:43:47;;;;;;;3.35;0.57;;;;;;;;;;5021548;28;20057;-60
2021/01/03 03:46:13;;;;;;;5.35;0.50;;;;;;;;;;5021001;28;20473;-61
2021/01/03 03:48:39;;;;;;;1.65;0.40;;;;;;;;;;5020261;28;20050;-60
2021/01/03 03:51:05;;;;;;;1.15;0.40;;;;;;;;;;5022418;28;23321;-61
2021/01/03 03:53:31;;;;;;;1.50;0.47;;;;;;;;;;5021203;28;20278;-62
2021/01/03 03:55:57;;;;;;;1.40;0.50;;;;;;;;;;5024293;28;20120;-59
2021/01/03 03:58:23;;;;;;;1.40;0.45;;;;;;;;;;5017518;28;20154;-61
2021/01/03 04:00:49;;;;;;;3.17;0.60;;;;;;;;;;5021379;28;20095;-59
2021/01/03 04:03:18;;;;;;;2.72;0.63;;;;;;;;;;5024582;28;20052;-60
2021/01/03 04:05:47;;;;;;;1.70;0.52;;;;;;;;;;5026496;28;20109;-60
2021/01/03 04:08:14;;;;;;;3.10;0.75;;;;;;;;;;5021010;28;20103;-60
2021/01/03 04:10:40;;;;;;;4.22;0.50;;;;;;;;;;5021488;28;20057;-60
2021/01/03 04:13:10;;;;;;;2.50;0.65;;;;;;;;;;5023704;28;20045;-59
2021/01/03 04:15:36;;;;;;;1.35;0.50;;;;;;;;;;5024823;28;20052;-60
2021/01/03 04:18:03;;;;;;;1.35;0.50;;;;;;;;;;5021889;28;20482;-60
2021/01/03 04:20:29;;;;;;;1.30;0.43;;;;;;;;;;5025230;28;20055;-60
2021/01/03 04:22:55;;;;;;;3.15;0.40;;;;;;;;;;5024355;28;20037;-61
2021/01/03 04:25:21;;;;;;;2.40;0.50;;;;;;;;;;5022221;28;20118;-60
2021/01/03 04:27:47;;;;;;;1.50;0.47;;;;;;;;;;5022837;28;20072;-60
2021/01/03 04:30:13;;;;;;;1.55;0.50;;;;;;;;;;5024251;28;20053;-60
2021/01/03 04:32:39;;;;;;;1.17;0.50;;;;;;;;;;5019125;28;20053;-60
2021/01/03 04:35:06;;;;;;;2.25;0.50;;;;;;;;;;5023038;28;20038;-60
2021/01/03 04:37:32;;;;;;;1.13;0.40;;;;;;;;;;5030045;28;20052;-60
2021/01/03 04:39:58;;;;;;;2.08;0.60;;;;;;;;;;5018320;28;20048;-60
2021/01/03 04:42:27;;;;;;;0.98;0.32;;;;;;;;;;5019456;28;20069;-60
2021/01/03 04:44:58;;;;;;;0.80;0.30;;;;;;;;;;5019016;28;20310;-59
2021/01/03 04:47:30;;;;;;;1.20;0.40;;;;;;;;;;5017366;28;20112;-60
2021/01/03 04:50:17;;;;;;;1.73;0.45;;;;;;;;;;5017008;28;20077;-60
2021/01/03 04:52:52;;;;;;;0.80;0.32;;;;;;;;;;5017876;28;20037;-61
2021/01/03 04:55:19;;;;;;;0.98;0.40;;;;;;;;;;5018099;28;20045;-59
2021/01/03 04:57:58;;;;;;;4.75;0.43;;;;;;;;;;5015006;28;20621;-60
2021/01/03 05:00:31;;;;;;;0.95;0.40;;;;;;;;;;5017538;28;20053;-59
2021/01/03 05:03:16;;;;;;;0.65;0.40;;;;;;;;;;5014767;28;20069;-60
2021/01/03 05:05:46;;;;;;;0.85;0.40;;;;;;;;;;5019349;28;20040;-59
2021/01/03 05:08:18;;;;;;;1.33;0.40;;;;;;;;;;5020715;28;20075;-60
2021/01/03 05:10:44;;;;;;;0.68;0.30;;;;;;;;;;5028089;28;20076;-61
2021/01/03 05:13:17;;;;;;;0.82;0.32;;;;;;;;;;5021744;28;20042;-61
2021/01/03 05:15:43;;;;;;;0.45;0.30;;;;;;;;;;5021290;28;20041;-60
2021/01/03 05:18:09;;;;;;;1.15;0.40;;;;;;;;;;5022425;28;20100;-60
2021/01/03 05:20:35;;;;;;;0.90;0.40;;;;;;;;;;5022855;28;20041;-61
2021/01/03 05:23:17;;;;;;;1.15;0.40;;;;;;;;;;5022468;28;20041;-61
2021/01/03 05:25:44;;;;;;;2.70;0.50;;;;;;;;;;5041463;28;20054;-60
2021/01/03 05:28:13;;;;;;;1.45;0.40;;;;;;;;;;5039378;28;20186;-60
2021/01/03 05:30:38;;;;;;;2.50;0.40;;;;;;;;;;5040031;28;20060;-61
2021/01/03 05:33:07;;;;;;;0.95;0.47;;;;;;;;;;5041921;28;20036;-61
2021/01/03 05:35:35;;;;;;;1.83;0.40;;;;;;;;;;5040639;28;20041;-61
2021/01/03 05:38:02;;;;;;;1.40;0.40;;;;;;;;;;5041016;28;20040;-61
2021/01/03 05:40:42;;;;;;;0.70;0.40;;;;;;;;;;5039105;28;20067;-61
2021/01/03 05:43:19;;;;;;;0.43;0.32;;;;;;;;;;5022478;28;20052;-61
2021/01/03 05:46:05;;;;;;;1.00;0.40;;;;;;;;;;5026041;28;20817;-61
2021/01/03 05:48:39;;;;;;;0.57;0.32;;;;;;;;;;4979243;28;20050;-61
2021/01/03 05:51:10;;;;;;;0.57;0.30;;;;;;;;;;5027990;28;20057;-60
2021/01/03 05:53:36;;;;;;;0.80;0.40;;;;;;;;;;5024078;28;20034;-61
2021/01/03 05:56:03;;;;;;;1.58;0.50;;;;;;;;;;5024595;28;20543;-61
2021/01/03 05:58:41;;;;;;;1.08;0.40;;;;;;;;;;5024439;28;20103;-61
2021/01/03 06:01:14;;;;;;;0.40;0.40;;;;;;;;;;5024982;28;20046;-61
2021/01/03 06:03:40;;;;;;;0.70;0.30;;;;;;;;;;5024777;28;20064;-60
2021/01/03 06:06:17;;;;;;;0.73;0.30;;;;;;;;;;5025820;28;20037;-60
2021/01/03 06:08:43;;;;;;;0.90;0.40;;;;;;;;;;5024263;28;20084;-61
2021/01/03 06:11:27;;;;;;;1.92;0.35;;;;;;;;;;5027005;28;20038;-61
2021/01/03 06:13:55;;;;;;;0.60;0.30;;;;;;;;;;5038687;28;20095;-61
2021/01/03 06:16:26;;;;;;;0.80;0.43;;;;;;;;;;5028567;28;20033;-60
2021/01/03 06:18:59;;;;;;;1.65;0.50;;;;;;;;;;5024865;28;20034;-61
2021/01/03 06:21:33;;;;;;;2.08;0.40;;;;;;;;;;5019706;28;20798;-61
2021/01/03 06:24:07;;;;;;;1.17;0.40;;;;;;;;;;5022243;28;20057;-60
2021/01/03 06:26:36;;;;;;;1.30;0.40;;;;;;;;;;5025337;28;20029;-61
2021/01/03 06:29:06;;;;;;;0.95;0.40;;;;;;;;;;5023897;28;20075;-60
2021/01/03 06:31:47;;;;;;;1.23;0.40;;;;;;;;;;5018291;28;20140;-60
2021/01/03 06:34:20;;;;;;;0.70;0.40;;;;;;;;;;5023345;28;20034;-61
2021/01/03 06:37:04;;;;;;;0.50;0.40;;;;;;;;;;5022003;28;20042;-60
2021/01/03 06:39:30;;;;;;;1.45;0.40;;;;;;;;;;5017288;28;20037;-61
2021/01/03 06:41:58;;;;;;;0.45;0.30;;;;;;;;;;5017956;28;20034;-61
2021/01/03 06:44:46;;;;;;;0.75;0.40;;;;;;;;;;5019829;28;20034;-61
2021/01/03 06:47:27;;;;;;;1.05;0.40;;;;;;;;;;5018657;28;20049;-61
2021/01/03 06:49:53;;;;;;;0.80;0.40;;;;;;;;;;5019652;28;20514;-61
2021/01/03 06:52:33;;;;;;;0.88;0.40;;;;;;;;;;5017442;28;20041;-62
2021/01/03 06:55:18;;;;;;;0.52;0.30;;;;;;;;;;5018601;28;20078;-60
2021/01/03 06:58:01;;;;;;;1.45;0.40;;;;;;;;;;5019774;28;20048;-61
2021/01/03 07:01:02;;;;;;;0.90;0.40;;;;;;;;;;5021154;28;20041;-60
2021/01/03 07:03:30;;;;;;;0.52;0.30;;;;;;;;;;5001219;28;20040;-60
2021/01/03 07:06:04;;;;;;;1.17;0.40;;;;;;;;;;5015321;28;20038;-61
2021/01/03 07:08:31;;;;;;;1.02;0.40;;;;;;;;;;5036222;28;20053;-61
2021/01/03 07:10:57;;;;;;;0.57;0.30;;;;;;;;;;5021589;28;20037;-61
2021/01/03 07:13:26;;;;;;;1.77;0.40;;;;;;;;;;5015670;28;20037;-60
2021/01/03 07:15:53;;;;;;;1.08;0.40;;;;;;;;;;5020174;28;20750;-60
2021/01/03 07:18:18;;;;;;;0.73;0.40;;;;;;;;;;5019278;28;20041;-61
2021/01/03 07:20:56;;;;;;;0.60;0.40;;;;;;;;;;5021324;28;20093;-61
2021/01/03 07:23:37;;;;;;;0.80;0.40;;;;;;;;;;5017018;28;20168;-61
2021/01/03 07:26:07;;;;;;;1.00;0.40;;;;;;;;;;5021443;28;20064;-61
2021/01/03 07:28:33;;;;;;;0.40;0.30;;;;;;;;;;5011950;28;20087;-61
2021/01/03 07:31:02;;;;;;;2.70;0.40;;;;;;;;;;5014277;28;20042;-61
2021/01/03 07:33:35;;;;;;;1.42;0.50;;;;;;;;;;5008987;28;20121;-61
2021/01/03 07:36:15;;;;;;;0.77;0.40;;;;;;;;;;5033826;28;20040;-60
2021/01/03 07:38:41;;;;;;;0.98;0.40;;;;;;;;;;5020026;28;20047;-60
2021/01/03 07:41:07;;;;;;;0.75;0.38;;;;;;;;;;5021854;28;20041;-59
2021/01/03 07:43:53;;;;;;;0.60;0.40;;;;;;;;;;5018446;28;20048;-61
2021/01/03 07:46:37;;;;;;;0.40;0.40;;;;;;;;;;5020321;28;20055;-59
2021/01/03 07:49:29;;;;;;;0.55;0.40;;;;;;;;;;5023580;28;20049;-60
2021/01/03 07:51:56;;;;;;;0.82;0.40;;;;;;;;;;5022063;28;20047;-60
2021/01/03 07:54:22;;;;;;;0.73;0.40;;;;;;;;;;5021339;28;20060;-60
2021/01/03 07:56:48;;;;;;;0.40;0.30;;;;;;;;;;5021104;28;20042;-60
2021/01/03 07:59:14;;;;;;;0.65;0.32;;;;;;;;;;5021963;28;20269;-59
2021/01/03 08:01:48;;;;;;;1.00;0.40;;;;;;;;;;5020727;28;20105;-59
2021/01/03 08:04:16;;;;;;;1.92;0.40;;;;;;;;;;5021512;28;20046;-60
2021/01/03 08:06:42;;;;;;;0.65;0.30;;;;;;;;;;5021880;28;20049;-60
2021/01/03 08:09:08;;;;;;;0.30;0.30;;;;;;;;;;5024691;28;20087;-60
2021/01/03 08:11:38;;;;;;;0.65;0.30;;;;;;;;;;5017750;28;20117;-59
2021/01/03 08:14:10;;;;;;;0.43;0.30;;;;;;;;;;5024748;28;20065;-59
2021/01/03 08:16:37;;;;;;;0.65;0.30;;;;;;;;;;5025908;28;20033;-60
2021/01/03 08:19:05;;;;;;;0.73;0.40;;;;;;;;;;5021119;28;20034;-58
2021/01/03 08:21:35;;;;;;;1.40;0.40;;;;;;;;;;5035292;28;20599;-60
2021/01/03 08:24:12;;;;;;;0.90;0.30;;;;;;;;;;5039937;28;20050;-58
2021/01/03 08:26:42;;;;;;;0.73;0.40;;;;;;;;;;5027130;28;20671;-60
2021/01/03 08:29:18;;;;;;;1.00;0.38;;;;;;;;;;5031971;28;22892;-60
2021/01/03 08:31:47;;;;;;;2.20;0.43;;;;;;;;;;5020999;28;21042;-60
2021/01/03 08:34:15;;;;;;;1.42;0.40;;;;;;;;;;5031576;28;20034;-61
2021/01/03 08:36:41;;;;;;;1.05;0.40;;;;;;;;;;5022275;28;20049;-60
2021/01/03 08:39:11;;;;;;;0.55;0.32;;;;;;;;;;4999355;28;20034;-60
2021/01/03 08:41:44;;;;;;;0.95;0.40;;;;;;;;;;4998735;28;20165;-59
2021/01/03 08:44:10;;;;;;;0.80;0.40;;;;;;;;;;5000837;28;20634;-61
2021/01/03 08:46:36;;;;;;;0.73;0.30;;;;;;;;;;5001896;28;20598;-61
2021/01/03 08:49:05;;;;;;;0.68;0.30;;;;;;;;;;5019690;28;20160;-60
2021/01/03 08:51:30;;;;;;;0.90;0.38;;;;;;;;;;5018649;28;20092;-60
2021/01/03 08:54:01;;;;;;;0.30;0.30;;;;;;;;;;5017287;28;20049;-60
2021/01/03 08:56:29;;;;;;;1.40;0.40;;;;;;;;;;5016926;28;20057;-60
2021/01/03 08:58:56;;;;;;;0.88;0.32;;;;;;;;;;4997431;28;20038;-60
2021/01/03 09:01:23;;;;;;;1.02;0.35;;;;;;;;;;4996734;28;20133;-61
2021/01/03 09:03:51;;;;;;;0.70;0.40;;;;;;;;;;5001137;28;20042;-61
2021/01/03 09:06:17;;;;;;;1.10;0.40;;;;;;;;;;4989828;28;20039;-60
2021/01/03 09:08:44;;;;;;;1.33;0.40;;;;;;;;;;4999117;28;20102;-60
2021/01/03 09:11:23;;;;;;;0.63;0.40;;;;;;;;;;5000538;28;20077;-60
2021/01/03 09:13:57;;;;;;;2.28;0.40;;;;;;;;;;5010853;28;20107;-60
2021/01/03 09:16:30;;;;;;;1.52;0.35;;;;;;;;;;5008966;28;20038;-61
2021/01/03 09:19:17;;;;;;;0.45;0.30;;;;;;;;;;5023570;28;20046;-60
2021/01/03 09:21:51;;;;;;;0.30;0.30;;;;;;;;;;5022842;28;20046;-60
2021/01/03 09:24:25;;;;;;;0.85;0.40;;;;;;;;;;5023132;28;20077;-61
2021/01/03 09:26:51;;;;;;;0.75;0.40;;;;;;;;;;5023898;28;20049;-61
2021/01/03 09:29:20;;;;;;;0.93;0.32;;;;;;;;;;5025498;28;20045;-61
2021/01/03 09:31:55;;;;;;;0.73;0.40;;;;;;;;;;5023551;28;21279;-61
2021/01/03 09:34:28;;;;;;;1.08;0.40;;;;;;;;;;5024895;28;20045;-60
2021/01/03 09:37:12;;;;;;;0.93;0.40;;;;;;;;;;5023964;28;20049;-61
2021/01/03 09:39:38;;;;;;;0.77;0.38;;;;;;;;;;5024462;28;20037;-60
2021/01/03 09:42:27;;;;;;;1.08;0.40;;;;;;;;;;5025342;28;20053;-60
2021/01/03 09:44:53;;;;;;;1.10;0.40;;;;;;;;;;4996862;28;20037;-61
2021/01/03 09:47:19;;;;;;;0.90;0.38;;;;;;;;;;5025389;28;20040;-60
2021/01/03 09:49:49;;;;;;;1.45;0.40;;;;;;;;;;5026822;28;20045;-60
2021/01/03 09:52:24;;;;;;;1.98;0.50;;;;;;;;;;5023696;28;20045;-60
2021/01/03 09:54:50;;;;;;;1.05;0.40;;;;;;;;;;5025523;28;20041;-61
2021/01/03 09:57:34;;;;;;;2.17;0.40;;;;;;;;;;5025129;28;20052;-60
2021/01/03 10:00:01;;;;;;;0.73;0.35;;;;;;;;;;5024915;28;20052;-60
2021/01/03 10:02:27;;;;;;;3.15;0.40;;;;;;;;;;5024251;28;20033;-61
2021/01/03 10:04:53;;;;;;;0.57;0.40;;;;;;;;;;5024581;28;20037;-60
2021/01/03 10:07:21;;;;;;;0.80;0.40;;;;;;;;;;5026495;28;20140;-60
2021/01/03 10:09:52;;;;;;;1.48;0.30;;;;;;;;;;5023623;28;20042;-60
2021/01/03 10:12:32;;;;;;;1.02;0.40;;;;;;;;;;5022019;28;20033;-60
2021/01/03 10:15:18;;;;;;;1.30;0.40;;;;;;;;;;5023968;28;20045;-60
2021/01/03 10:17:55;;;;;;;0.80;0.40;;;;;;;;;;5016293;28;20044;-60
2021/01/03 10:20:35;;;;;;;0.85;0.30;;;;;;;;;;5022188;28;20041;-60
2021/01/03 10:23:02;;;;;;;1.63;0.40;;;;;;;;;;5020572;28;20068;-60
2021/01/03 10:25:28;;;;;;;0.98;0.30;;;;;;;;;;5028117;28;20048;-59
2021/01/03 10:28:04;;;;;;;1.02;0.40;;;;;;;;;;5020793;28;20053;-59
2021/01/03 10:30:30;;;;;;;0.45;0.30;;;;;;;;;;5022988;28;20062;-60
2021/01/03 10:32:56;;;;;;;0.47;0.40;;;;;;;;;;5020115;28;20048;-60
2021/01/03 10:35:22;;;;;;;1.30;0.40;;;;;;;;;;5019366;28;20041;-60
2021/01/03 10:37:48;;;;;;;1.02;0.40;;;;;;;;;;5020163;28;20493;-60
2021/01/03 10:40:14;;;;;;;0.73;0.40;;;;;;;;;;5021006;28;20064;-61
2021/01/03 10:42:40;;;;;;;1.13;0.40;;;;;;;;;;5021776;28;20045;-60
2021/01/03 10:45:06;;;;;;;0.85;0.40;;;;;;;;;;5020493;28;20037;-61
2021/01/03 10:47:32;;;;;;;0.30;0.30;;;;;;;;;;5019927;28;20073;-61
2021/01/03 10:49:58;;;;;;;0.65;0.30;;;;;;;;;;5021367;28;20029;-60
2021/01/03 10:52:24;;;;;;;0.65;0.38;;;;;;;;;;5021640;28;20678;-60
2021/01/03 10:54:50;;;;;;;0.82;0.40;;;;;;;;;;5021696;28;20041;-60
2021/01/03 10:57:16;;;;;;;0.47;0.30;;;;;;;;;;5021560;28;20093;-60
2021/01/03 10:59:41;;;;;;;0.50;0.40;;;;;;;;;;5022389;28;20048;-60
2021/01/03 11:02:07;;;;;;;0.52;0.40;;;;;;;;;;5022050;28;20037;-60
2021/01/03 11:04:33;;;;;;;1.85;0.40;;;;;;;;;;5023026;28;20113;-58
2021/01/03 11:07:01;;;;;;;0.35;0.30;;;;;;;;;;5023700;28;20045;-60
2021/01/03 11:09:28;;;;;;;0.30;0.30;;;;;;;;;;5025002;28;20049;-59
2021/01/03 11:12:05;;;;;;;2.38;0.40;;;;;;;;;;5024106;28;20049;-60
2021/01/03 11:14:31;;;;;;;1.25;0.30;;;;;;;;;;5023554;28;20056;-60
2021/01/03 11:16:57;;;;;;;0.63;0.40;;;;;;;;;;5025866;28;20124;-60
2021/01/03 11:19:23;;;;;;;0.80;0.35;;;;;;;;;;5025614;28;20042;-60
2021/01/03 11:21:53;;;;;;;0.65;0.40;;;;;;;;;;5024654;28;20156;-60
2021/01/03 11:24:19;;;;;;;1.00;0.40;;;;;;;;;;5022777;28;20464;-62
2021/01/03 11:26:44;;;;;;;1.00;0.40;;;;;;;;;;5025384;28;20490;-61
2021/01/03 11:29:13;;;;;;;1.13;0.40;;;;;;;;;;5025233;28;20054;-62
2021/01/03 11:31:43;;;;;;;0.70;0.30;;;;;;;;;;5022590;28;20100;-62
2021/01/03 11:34:10;;;;;;;0.30;0.30;;;;;;;;;;5019765;28;20037;-61
2021/01/03 11:36:36;;;;;;;0.30;0.30;;;;;;;;;;5018999;28;20109;-62
2021/01/03 11:39:04;;;;;;;1.27;0.50;;;;;;;;;;5022180;28;20052;-61
2021/01/03 11:41:30;;;;;;;0.90;0.40;;;;;;;;;;5011818;28;20199;-62
2021/01/03 11:43:56;;;;;;;0.65;0.40;;;;;;;;;;5035378;28;20485;-61
2021/01/03 11:46:22;;;;;;;0.63;0.40;;;;;;;;;;5020888;28;20069;-61
2021/01/03 11:48:48;;;;;;;0.45;0.30;;;;;;;;;;5019979;28;20121;-61
2021/01/03 11:51:14;;;;;;;0.60;0.30;;;;;;;;;;5022358;28;20102;-61
2021/01/03 11:53:40;;;;;;;0.45;0.30;;;;;;;;;;5021384;28;20065;-61
2021/01/03 11:56:06;;;;;;;0.47;0.30;;;;;;;;;;5019249;28;20080;-62
2021/01/03 11:58:33;;;;;;;0.30;0.30;;;;;;;;;;5024027;28;20077;-62
2021/01/03 12:00:59;;;;;;;0.52;0.35;;;;;;;;;;5022565;28;20043;-61
2021/01/03 12:06:31;;;;;;;1.10;0.40;;;;;;;;;;5023921;28;20075;-63
2021/01/03 12:08:57;;;;;;;0.90;0.40;;;;;;;;;;5019675;28;20157;-56
2021/01/03 12:11:24;;;;;;;0.80;0.30;;;;;;;;;;5018502;28;20109;-55
2021/01/03 12:13:51;;;;;;;1.05;0.40;;;;;;;;;;5026319;28;20312;-54
2021/01/03 12:16:20;;;;;;;2.63;0.30;;;;;;;;;;5018481;28;20155;-55
2021/01/03 12:18:47;;;;;;;1.15;0.40;;;;;;;;;;5019869;28;20537;-56
2021/01/03 12:21:19;;;;;;;0.35;0.35;;;;;;;;;;5014929;28;20049;-56
2021/01/03 12:23:45;;;;;;;0.65;0.40;;;;;;;;;;5020170;28;20038;-53
2021/01/03 12:26:11;;;;;;;0.88;0.38;;;;;;;;;;5028233;28;20049;-56
2021/01/03 12:28:37;;;;;;;0.73;0.40;;;;;;;;;;5022155;28;20065;-54
2021/01/03 12:31:02;;;;;;;0.75;0.35;;;;;;;;;;5021803;28;20037;-55
2021/01/03 12:33:28;;;;;;;0.98;0.40;;;;;;;;;;5021930;28;20042;-58
2021/01/03 12:35:54;;;;;;;1.13;0.40;;;;;;;;;;5023049;28;20038;-54
2021/01/03 12:38:20;;;;;;;0.95;0.40;;;;;;;;;;5034096;28;20036;-54
2021/01/03 12:40:46;;;;;;;0.80;0.40;;;;;;;;;;5033494;28;20038;-56
2021/01/03 12:43:12;;;;;;;1.25;0.40;;;;;;;;;;5021215;28;20037;-55
2021/01/03 12:45:38;;;;;;;1.25;0.40;;;;;;;;;;5029641;28;20094;-56
2021/01/03 12:48:04;;;;;;;0.88;0.40;;;;;;;;;;5022449;28;20050;-55
2021/01/03 12:50:30;;;;;;;2.30;0.40;;;;;;;;;;5022076;28;20041;-53
2021/01/03 12:52:56;;;;;;;1.05;0.35;;;;;;;;;;5028789;28;20089;-54
2021/01/03 12:55:22;;;;;;;1.13;0.40;;;;;;;;;;5019639;28;20060;-55
2021/01/03 12:57:48;;;;;;;1.00;0.35;;;;;;;;;;5020976;28;20104;-53
2021/01/03 13:00:14;;;;;;;0.30;0.30;;;;;;;;;;5018870;28;20048;-55
2021/01/03 13:02:40;;;;;;;0.82;0.40;;;;;;;;;;5018973;28;20034;-54
2021/01/03 13:05:06;;;;;;;0.77;0.30;;;;;;;;;;5018980;28;20041;-56
2021/01/03 13:07:32;;;;;;;0.80;0.38;;;;;;;;;;5017134;28;20126;-52
2021/01/03 13:09:58;;;;;;;1.48;0.40;;;;;;;;;;5017834;28;20069;-52
2021/01/03 13:12:24;;;;;;;0.90;0.40;;;;;;;;;;5011128;28;20049;-53
2021/01/03 13:14:50;;;;;;;1.13;0.40;;;;;;;;;;5017570;28;20096;-52
2021/01/03 13:17:16;;;;;;;1.90;0.60;;;;;;;;;;5017647;28;20034;-55
2021/01/03 13:19:42;;;;;;;0.98;0.40;;;;;;;;;;5015826;28;20034;-54
2021/01/03 13:22:07;;;;;;;1.33;0.40;;;;;;;;;;5020246;28;20090;-54
2021/01/03 13:24:33;;;;;;;0.70;0.40;;;;;;;;;;5028044;28;20068;-51
2021/01/03 13:26:59;;;;;;;0.82;0.40;;;;;;;;;;5028187;28;20064;-53
2021/01/03 13:29:25;;;;;;;0.93;0.40;;;;;;;;;;5020022;28;20057;-55
2021/01/03 13:31:56;;;;;;;1.23;0.40;;;;;;;;;;5019821;28;20046;-53
2021/01/03 13:34:22;;;;;;;1.08;0.40;;;;;;;;;;5020037;28;20449;-55
2021/01/03 13:36:48;;;;;;;0.93;0.40;;;;;;;;;;5025177;28;20034;-54
2021/01/03 13:39:14;;;;;;;1.67;0.40;;;;;;;;;;5019986;28;20046;-54
2021/01/03 13:41:40;;;;;;;1.35;0.40;;;;;;;;;;5019168;28;20367;-50
2021/01/03 13:44:08;;;;;;;0.82;0.40;;;;;;;;;;5020815;28;20076;-54
2021/01/03 13:46:34;;;;;;;1.23;0.40;;;;;;;;;;5020404;28;20038;-52
2021/01/03 13:49:00;;;;;;;1.13;0.40;;;;;;;;;;5018867;28;20146;-53
2021/01/03 13:51:26;;;;;;;0.70;0.30;;;;;;;;;;5022196;28;20026;-51
2021/01/03 13:53:52;;;;;;;0.98;0.30;;;;;;;;;;5021241;28;20060;-52
2021/01/03 13:56:18;;;;;;;0.75;0.30;;;;;;;;;;5019396;28;20112;-55
2021/01/03 13:58:44;;;;;;;0.55;0.30;;;;;;;;;;5021718;28;20045;-54
2021/01/03 14:01:10;;;;;;;0.80;0.40;;;;;;;;;;5023010;28;20037;-55
2021/01/03 14:03:36;;;;;;;1.45;0.50;;;;;;;;;;5020521;28;20053;-53
2021/01/03 14:06:02;;;;;;;1.48;0.40;;;;;;;;;;5020633;28;20038;-51
2021/01/03 14:08:28;;;;;;;1.02;0.40;;;;;;;;;;5021092;28;20046;-55
2021/01/03 14:10:54;;;;;;;1.63;0.40;;;;;;;;;;5022710;28;20041;-52
2021/01/03 14:13:20;;;;;;;0.95;0.30;;;;;;;;;;5021474;28;20049;-54
2021/01/03 14:15:46;;;;;;;0.90;0.40;;;;;;;;;;5022099;28;20095;-54
2021/01/03 14:18:12;;;;;;;0.93;0.40;;;;;;;;;;5020805;28;20038;-53
2021/01/03 14:20:38;;;;;;;1.42;0.50;;;;;;;;;;5020858;28;21111;-51
2021/01/03 14:23:04;;;;;;;1.05;0.40;;;;;;;;;;5021798;28;20037;-55
2021/01/03 14:25:30;;;;;;;1.75;0.50;;;;;;;;;;5018636;28;20045;-53
2021/01/03 14:27:56;;;;;;;1.10;0.40;;;;;;;;;;5022722;28;20056;-54
2021/01/03 14:30:23;;;;;;;0.95;0.40;;;;;;;;;;5021122;28;20048;-53
2021/01/03 14:32:51;;;;;;;1.13;0.40;;;;;;;;;;5020903;28;20069;-53
2021/01/03 14:35:20;;;;;;;0.98;0.40;;;;;;;;;;5028501;28;20041;-50
2021/01/03 14:37:47;;;;;;;0.75;0.40;;;;;;;;;;5017083;28;20052;-54
2021/01/03 14:40:12;;;;;;;0.55;0.30;;;;;;;;;;5021518;28;20046;-54
2021/01/03 14:42:42;;;;;;;0.68;0.40;;;;;;;;;;5022276;28;20072;-52
2021/01/03 14:45:20;;;;;;;2.60;0.40;;;;;;;;;;5024466;28;20048;-52
2021/01/03 14:47:50;;;;;;;1.23;0.40;;;;;;;;;;5019880;28;20048;-54
2021/01/03 14:50:24;;;;;;;1.38;0.40;;;;;;;;;;5019464;28;20041;-54
2021/01/03 14:52:53;;;;;;;1.02;0.40;;;;;;;;;;5016624;28;20121;-50
2021/01/03 14:55:25;;;;;;;0.73;0.40;;;;;;;;;;5016262;28;20077;-56
2021/01/03 14:57:52;;;;;;;0.85;0.38;;;;;;;;;;5016666;28;20037;-54